Time;durP1;ratioP1;P1;durP2;ratioP2;P2;SDS_P1;SDS_P2;PMS_P1;PMS_P2;Temp;Humidity;BMP_temperature;BMP_pressure;BME280_temperature;BME280_humidity;BME280_pressure;Samples;Min_cycle;Max_cycle;Signal;HPM_P1;HPM_P2
2021/12/07 00:02:20;;;;;;;;;;;0.20;99.90;;;;;;5078461;28;19921;-70
2021/12/07 00:04:47;;;;;;;;;;;0.20;99.90;;;;;;5062198;28;19920;-70
2021/12/07 00:07:15;;;;;;;;;;;0.20;99.90;;;;;;5065902;28;19928;-70
2021/12/07 00:09:44;;;;;;;;;;;0.20;99.90;;;;;;5083185;28;19951;-70
2021/12/07 00:12:12;;;;;;;;;;;0.20;99.90;;;;;;5081991;28;20294;-70
2021/12/07 00:14:41;;;;;;;;;;;0.20;99.90;;;;;;5082368;28;19924;-70
2021/12/07 00:17:08;;;;;;;;;;;0.20;99.90;;;;;;5082081;28;19958;-70
2021/12/07 00:19:35;;;;;;;;;;;0.20;99.90;;;;;;5086723;28;19920;-70
2021/12/07 00:22:02;;;;;;;;;;;0.20;99.90;;;;;;5078109;28;19935;-70
2021/12/07 00:24:30;;;;;;;;;;;0.30;99.90;;;;;;5065714;28;19920;-72
2021/12/07 00:26:57;;;;;;;;;;;0.30;99.90;;;;;;5066650;28;19927;-71
2021/12/07 00:29:24;;;;;;;;;;;0.30;99.90;;;;;;5086422;28;19927;-70
2021/12/07 00:31:54;;;;;;;;;;;0.30;99.90;;;;;;5085628;28;19920;-69
2021/12/07 00:34:39;;;;;;;;;;;0.30;99.90;;;;;;5085388;28;20242;-70
2021/12/07 00:37:05;;;;;;;;;;;0.30;99.90;;;;;;5083765;28;20070;-70
2021/12/07 00:39:33;;;;;;;;;;;0.30;99.90;;;;;;5064459;28;19927;-70
2021/12/07 00:42:01;;;;;;;;;;;0.30;99.90;;;;;;5063915;28;19928;-70
2021/12/07 00:44:28;;;;;;;;;;;0.30;99.90;;;;;;5065404;28;19985;-70
2021/12/07 00:46:54;;;;;;;;;;;0.30;99.90;;;;;;5066329;28;20115;-70
2021/12/07 00:49:21;;;;;;;;;;;0.30;99.90;;;;;;5086218;28;19925;-70
2021/12/07 00:51:48;;;;;;;;;;;0.30;99.90;;;;;;5085903;28;19920;-69
2021/12/07 00:54:14;;;;;;;;;;;0.30;99.90;;;;;;5074396;28;19927;-70
2021/12/07 00:56:43;;;;;;;;;;;0.30;99.90;;;;;;5066004;28;19927;-70
2021/12/07 00:59:09;;;;;;;;;;;0.30;99.90;;;;;;5065806;28;19920;-70
2021/12/07 01:01:36;;;;;;;;;;;0.20;99.90;;;;;;5065606;28;19921;-70
2021/12/07 01:04:03;;;;;;;;;;;0.20;99.90;;;;;;5083248;28;20242;-70
2021/12/07 01:06:33;;;;;;;;;;;0.20;99.90;;;;;;5085376;28;20208;-70
2021/12/07 01:09:14;;;;;;;;;;;0.30;99.90;;;;;;5067321;28;20153;-71
2021/12/07 01:25:29;;;;;;;;;;;0.40;99.90;;;;;;5084570;28;19927;-70
2021/12/07 01:28:01;;;;;;;;;;;0.40;99.90;;;;;;5075481;28;19921;-70
2021/12/07 01:30:38;;;;;;;;;;;0.40;99.90;;;;;;5064750;28;19929;-70
2021/12/07 01:33:22;;;;;;;;;;;0.40;99.90;;;;;;5075315;28;19952;-70
2021/12/07 01:36:04;;;;;;;;;;;0.40;99.90;;;;;;5084582;28;19952;-70
2021/12/07 01:39:28;;;;;;;;;;;0.40;99.90;;;;;;5084666;28;20115;-70
2021/12/07 01:41:39;;;;;;;;;;;0.40;99.90;;;;;;5044694;28;20120;-70
2021/12/07 01:44:24;;;;;;;;;;;0.40;99.90;;;;;;5063989;28;19928;-71
2021/12/07 01:47:21;;;;;;;;;;;0.50;99.90;;;;;;5065304;28;19988;-70
2021/12/07 01:53:10;;;;;;;;;;;0.50;99.90;;;;;;5052444;28;19963;-70
2021/12/07 02:01:06;;;;;;;;;;;0.40;99.90;;;;;;5077621;28;20147;-69
2021/12/07 02:03:35;;;;;;;;;;;0.50;99.90;;;;;;5064118;28;19921;-70
2021/12/07 02:06:02;;;;;;;;;;;0.40;99.90;;;;;;5064426;28;19925;-70
2021/12/07 02:08:29;;;;;;;;;;;0.40;99.90;;;;;;5078358;28;19920;-70
2021/12/07 02:10:59;;;;;;;;;;;0.40;99.90;;;;;;5069500;28;19921;-70
2021/12/07 02:16:07;;;;;;;;;;;0.30;99.90;;;;;;5063247;28;20118;-70
2021/12/07 02:18:35;;;;;;;;;;;0.40;99.90;;;;;;5077513;28;20047;-70
2021/12/07 02:21:14;;;;;;;;;;;0.40;99.90;;;;;;5084116;28;19920;-70
2021/12/07 02:23:40;;;;;;;;;;;0.40;99.90;;;;;;5064363;28;20216;-70
2021/12/07 02:26:07;;;;;;;;;;;0.30;99.90;;;;;;5064192;28;20115;-70
2021/12/07 02:28:38;;;;;;;;;;;0.30;99.90;;;;;;5077916;28;19920;-70
2021/12/07 02:31:05;;;;;;;;;;;0.30;99.90;;;;;;5084181;28;19920;-70
2021/12/07 02:33:32;;;;;;;;;;;0.30;99.90;;;;;;5059951;28;19984;-70
2021/12/07 02:35:58;;;;;;;;;;;0.30;99.90;;;;;;5044300;28;20004;-70
2021/12/07 02:38:26;;;;;;;;;;;0.30;99.90;;;;;;5069978;28;19921;-70
2021/12/07 02:40:53;;;;;;;;;;;0.30;99.90;;;;;;5082867;28;20211;-70
2021/12/07 02:43:19;;;;;;;;;;;0.20;99.90;;;;;;5071499;28;19921;-71
2021/12/07 02:45:46;;;;;;;;;;;0.20;99.90;;;;;;5063502;28;19928;-70
2021/12/07 02:48:13;;;;;;;;;;;0.20;99.90;;;;;;5075350;28;19920;-70
2021/12/07 02:50:39;;;;;;;;;;;0.20;99.90;;;;;;5082346;28;19921;-70
2021/12/07 02:53:06;;;;;;;;;;;0.20;99.90;;;;;;5065728;28;19929;-70
2021/12/07 02:55:34;;;;;;;;;;;0.20;99.90;;;;;;5063216;28;19920;-70
2021/12/07 02:58:01;;;;;;;;;;;0.20;99.90;;;;;;5063429;28;19921;-70
2021/12/07 03:00:35;;;;;;;;;;;0.20;99.90;;;;;;5063514;28;20120;-70
2021/12/07 03:03:06;;;;;;;;;;;0.20;99.90;;;;;;5063765;28;19920;-70
2021/12/07 03:05:41;;;;;;;;;;;0.30;99.90;;;;;;5060304;28;19963;-70
2021/12/07 03:08:38;;;;;;;;;;;0.30;99.90;;;;;;5063617;28;19996;-70
2021/12/07 03:27:44;;;;;;;;;;;0.40;99.90;;;;;;5082014;28;19927;-70
2021/12/07 03:30:11;;;;;;;;;;;0.40;99.90;;;;;;5070304;28;19921;-70
2021/12/07 03:32:38;;;;;;;;;;;0.40;99.90;;;;;;5068608;28;20220;-70
2021/12/07 03:35:05;;;;;;;;;;;0.50;99.90;;;;;;5074081;28;19951;-70
2021/12/07 03:37:31;;;;;;;;;;;0.40;99.90;;;;;;5069620;28;19927;-70
2021/12/07 03:39:58;;;;;;;;;;;0.40;99.90;;;;;;5077154;28;19920;-69
2021/12/07 03:42:24;;;;;;;;;;;0.40;99.90;;;;;;5066080;28;19921;-70
2021/12/07 03:44:52;;;;;;;;;;;0.40;99.90;;;;;;5080846;28;19925;-70
2021/12/07 03:47:19;;;;;;;;;;;0.40;99.90;;;;;;5064592;28;20235;-70
2021/12/07 03:49:45;;;;;;;;;;;0.40;99.90;;;;;;5073340;28;19928;-70
2021/12/07 03:52:12;;;;;;;;;;;0.50;99.90;;;;;;5052847;28;20377;-70
2021/12/07 03:54:38;;;;;;;;;;;0.50;99.90;;;;;;5067129;28;19924;-70
2021/12/07 03:57:05;;;;;;;;;;;0.50;99.90;;;;;;5077963;28;19921;-70
2021/12/07 03:59:32;;;;;;;;;;;0.50;99.90;;;;;;5076865;28;19921;-70
2021/12/07 04:02:01;;;;;;;;;;;0.60;99.90;;;;;;5075250;28;20120;-70
2021/12/07 04:04:28;;;;;;;;;;;0.60;99.90;;;;;;5067363;28;19925;-70
2021/12/07 04:06:54;;;;;;;;;;;0.60;99.90;;;;;;5078371;28;20150;-70
2021/12/07 04:09:21;;;;;;;;;;;0.60;99.90;;;;;;5076346;28;19921;-70
2021/12/07 04:11:48;;;;;;;;;;;0.70;99.90;;;;;;5077845;28;19921;-70
2021/12/07 04:14:15;;;;;;;;;;;0.70;99.90;;;;;;5071807;28;20204;-70
2021/12/07 04:16:42;;;;;;;;;;;0.70;99.90;;;;;;5066330;28;19928;-70
2021/12/07 04:19:09;;;;;;;;;;;0.70;99.90;;;;;;5082850;28;20230;-70
2021/12/07 04:21:36;;;;;;;;;;;0.70;99.90;;;;;;5067817;28;19921;-70
2021/12/07 04:24:03;;;;;;;;;;;0.80;99.90;;;;;;5074802;28;19927;-70
2021/12/07 04:26:31;;;;;;;;;;;0.80;99.90;;;;;;5082712;28;19921;-70
2021/12/07 04:28:57;;;;;;;;;;;0.90;99.90;;;;;;5083554;28;19924;-70
2021/12/07 04:31:24;;;;;;;;;;;0.90;99.90;;;;;;5078991;28;19921;-70
2021/12/07 04:33:51;;;;;;;;;;;0.90;99.90;;;;;;5074534;28;19951;-70
2021/12/07 04:36:19;;;;;;;;;;;1.00;99.90;;;;;;5075754;28;19991;-69
2021/12/07 04:38:45;;;;;;;;;;;1.10;99.90;;;;;;5068340;28;19921;-70
2021/12/07 04:41:12;;;;;;;;;;;1.10;99.90;;;;;;5066161;28;19927;-69
2021/12/07 04:43:39;;;;;;;;;;;1.20;99.90;;;;;;5065771;28;19983;-70
2021/12/07 04:46:11;;;;;;;;;;;1.20;99.90;;;;;;5076570;28;19920;-70
2021/12/07 04:49:21;;;;;;;;;;;1.20;99.90;;;;;;5082651;28;19966;-70
2021/12/07 04:59:56;;;;;;;;;;;1.30;99.90;;;;;;5047473;28;19924;-71
2021/12/07 05:02:23;;;;;;;;;;;1.40;99.90;;;;;;5063327;28;19921;-70
2021/12/07 05:04:50;;;;;;;;;;;1.40;99.90;;;;;;5060542;28;20208;-71
2021/12/07 05:07:24;;;;;;;;;;;1.40;99.90;;;;;;5047405;28;19921;-70
2021/12/07 05:12:52;;;;;;;;;;;1.40;99.90;;;;;;5038516;28;19975;-70
2021/12/07 05:15:25;;;;;;;;;;;1.40;99.90;;;;;;5058892;28;20119;-71
2021/12/07 05:18:19;;;;;;;;;;;1.50;99.90;;;;;;5046491;28;19988;-71
2021/12/07 05:23:58;;;;;;;;;;;1.50;99.90;;;;;;5051752;28;19922;-71
2021/12/07 05:34:48;;;;;;;;;;;1.60;99.90;;;;;;5055509;28;19939;-71
2021/12/07 05:40:00;;;;;;;;;;;1.60;99.90;;;;;;5052245;28;19952;-70
2021/12/07 05:42:27;;;;;;;;;;;1.60;99.90;;;;;;5054827;28;19921;-70
2021/12/07 05:44:54;;;;;;;;;;;1.50;99.90;;;;;;5050705;28;19925;-70
2021/12/07 05:47:21;;;;;;;;;;;1.60;99.90;;;;;;5049484;28;19928;-71
2021/12/07 05:49:48;;;;;;;;;;;1.60;99.90;;;;;;5065369;28;19943;-70
2021/12/07 05:52:15;;;;;;;;;;;1.60;99.90;;;;;;5047830;28;19929;-71
2021/12/07 05:54:41;;;;;;;;;;;1.60;99.90;;;;;;5044220;28;19925;-71
2021/12/07 05:57:10;;;;;;;;;;;1.70;99.90;;;;;;5044719;28;19921;-69
2021/12/07 05:59:37;;;;;;;;;;;1.70;99.90;;;;;;5062091;28;19927;-71
2021/12/07 06:02:04;;;;;;;;;;;1.70;99.90;;;;;;5046447;28;19928;-71
2021/12/07 06:04:31;;;;;;;;;;;1.70;99.90;;;;;;5051493;28;19929;-70
2021/12/07 06:06:57;;;;;;;;;;;1.80;99.90;;;;;;5054429;28;20213;-71
2021/12/07 06:09:24;;;;;;;;;;;1.80;99.90;;;;;;5058301;28;19921;-71
2021/12/07 06:11:51;;;;;;;;;;;1.80;99.90;;;;;;5064454;28;19942;-71
2021/12/07 06:14:20;;;;;;;;;;;1.80;99.90;;;;;;5036224;28;19928;-71
2021/12/07 06:16:47;;;;;;;;;;;1.80;99.90;;;;;;5064653;28;19943;-70
2021/12/07 06:19:13;;;;;;;;;;;1.80;99.90;;;;;;5064501;28;19924;-70
2021/12/07 06:21:40;;;;;;;;;;;1.80;99.90;;;;;;5049920;28;19921;-71
2021/12/07 06:24:07;;;;;;;;;;;1.80;99.90;;;;;;5043638;28;19927;-70
2021/12/07 06:26:33;;;;;;;;;;;1.80;99.90;;;;;;5044608;28;19921;-71
2021/12/07 06:29:00;;;;;;;;;;;1.80;99.90;;;;;;5044524;28;19922;-71
2021/12/07 06:31:28;;;;;;;;;;;1.90;99.90;;;;;;5044087;28;19921;-71
2021/12/07 06:33:55;;;;;;;;;;;1.80;99.90;;;;;;5043476;28;19929;-71
2021/12/07 06:36:24;;;;;;;;;;;1.90;99.90;;;;;;5026452;28;20008;-70
2021/12/07 06:38:50;;;;;;;;;;;1.90;99.90;;;;;;5024541;28;19921;-70
2021/12/07 06:41:17;;;;;;;;;;;1.90;99.90;;;;;;5024112;28;19921;-71
2021/12/07 06:43:44;;;;;;;;;;;1.90;99.90;;;;;;5024579;28;19928;-72
2021/12/07 06:46:11;;;;;;;;;;;1.90;99.90;;;;;;5028423;28;19933;-72
2021/12/07 06:48:39;;;;;;;;;;;1.90;99.90;;;;;;5047647;28;19920;-71
2021/12/07 06:51:06;;;;;;;;;;;1.90;99.90;;;;;;5048747;28;19921;-71
2021/12/07 06:53:36;;;;;;;;;;;1.90;99.90;;;;;;5042585;28;19927;-72
2021/12/07 06:56:04;;;;;;;;;;;1.90;99.90;;;;;;5033202;28;19929;-72
2021/12/07 06:58:30;;;;;;;;;;;1.90;99.90;;;;;;5037265;28;19921;-72
2021/12/07 07:00:57;;;;;;;;;;;1.90;99.90;;;;;;5043745;28;19921;-71
2021/12/07 07:03:23;;;;;;;;;;;1.90;99.90;;;;;;5035440;28;19925;-70
2021/12/07 07:05:52;;;;;;;;;;;1.90;99.90;;;;;;5023512;28;20139;-71
2021/12/07 07:08:21;;;;;;;;;;;1.90;99.90;;;;;;5023520;28;19980;-70
2021/12/07 07:10:47;;;;;;;;;;;1.90;99.90;;;;;;5024118;28;20259;-74
2021/12/07 07:13:14;;;;;;;;;;;1.90;99.90;;;;;;5023459;28;19921;-71
2021/12/07 07:15:41;;;;;;;;;;;1.90;99.90;;;;;;5023542;28;19985;-71
2021/12/07 07:18:07;;;;;;;;;;;1.90;99.90;;;;;;5023844;28;19921;-71
2021/12/07 07:20:34;;;;;;;;;;;1.90;99.90;;;;;;5027116;28;20216;-71
2021/12/07 07:23:02;;;;;;;;;;;1.90;99.90;;;;;;5025218;28;20106;-70
2021/12/07 07:25:29;;;;;;;;;;;1.80;99.90;;;;;;5025192;28;19922;-70
2021/12/07 07:27:55;;;;;;;;;;;1.90;99.90;;;;;;5025548;28;19922;-72
2021/12/07 07:30:22;;;;;;;;;;;1.90;99.90;;;;;;5028206;28;19928;-71
2021/12/07 07:32:50;;;;;;;;;;;1.90;99.90;;;;;;5027450;28;19928;-71
2021/12/07 07:35:17;;;;;;;;;;;1.90;99.90;;;;;;5039192;28;19967;-71
2021/12/07 07:37:44;;;;;;;;;;;1.90;99.90;;;;;;5047823;28;19921;-72
2021/12/07 07:40:13;;;;;;;;;;;1.90;99.90;;;;;;5047687;28;19925;-72
2021/12/07 07:42:40;;;;;;;;;;;2.00;99.90;;;;;;5046296;28;19925;-72
2021/12/07 07:45:07;;;;;;;;;;;2.00;99.90;;;;;;5043408;28;19928;-72
2021/12/07 07:47:34;;;;;;;;;;;2.00;99.90;;;;;;5047507;28;20143;-72
2021/12/07 07:50:00;;;;;;;;;;;2.00;99.90;;;;;;5047745;28;19951;-71
2021/12/07 07:52:27;;;;;;;;;;;2.10;99.90;;;;;;5045750;28;19929;-72
2021/12/07 07:54:53;;;;;;;;;;;2.10;99.90;;;;;;5047823;28;19921;-71
2021/12/07 07:57:21;;;;;;;;;;;2.10;99.90;;;;;;5047442;28;19925;-70
2021/12/07 07:59:48;;;;;;;;;;;2.10;99.90;;;;;;5050719;28;19929;-70
2021/12/07 08:02:15;;;;;;;;;;;2.20;99.90;;;;;;5053292;28;19979;-72
2021/12/07 08:04:41;;;;;;;;;;;2.20;99.90;;;;;;5046350;28;19928;-71
2021/12/07 08:07:09;;;;;;;;;;;2.20;99.90;;;;;;5046597;28;19921;-72
2021/12/07 08:09:35;;;;;;;;;;;2.20;99.90;;;;;;5047086;28;19921;-70
2021/12/07 08:12:04;;;;;;;;;;;2.20;99.90;;;;;;5046913;28;19929;-72
2021/12/07 08:14:32;;;;;;;;;;;2.20;99.90;;;;;;5044705;28;19944;-71
2021/12/07 08:16:59;;;;;;;;;;;2.20;99.90;;;;;;5043792;28;19921;-71
2021/12/07 08:19:25;;;;;;;;;;;2.20;99.90;;;;;;5047106;28;19927;-71
2021/12/07 08:21:52;;;;;;;;;;;2.30;99.90;;;;;;5046870;28;19921;-72
2021/12/07 08:24:19;;;;;;;;;;;2.30;99.90;;;;;;5035491;28;20227;-71
2021/12/07 08:26:46;;;;;;;;;;;2.20;99.90;;;;;;5026962;28;19921;-71
2021/12/07 08:29:12;;;;;;;;;;;2.30;99.90;;;;;;5026916;28;19928;-71
2021/12/07 08:31:40;;;;;;;;;;;2.20;99.90;;;;;;5026965;28;19926;-71
2021/12/07 08:34:07;;;;;;;;;;;2.30;99.90;;;;;;5029773;28;19921;-70
2021/12/07 08:36:34;;;;;;;;;;;2.30;99.90;;;;;;5027098;28;19929;-70
2021/12/07 08:39:00;;;;;;;;;;;2.30;99.90;;;;;;5027134;28;19925;-71
2021/12/07 08:41:27;;;;;;;;;;;2.30;99.90;;;;;;5026926;28;19929;-71
2021/12/07 08:43:54;;;;;;;;;;;2.30;99.90;;;;;;5025812;28;19988;-71
2021/12/07 08:46:21;;;;;;;;;;;2.30;99.90;;;;;;5041254;28;20272;-72
2021/12/07 08:48:48;;;;;;;;;;;2.20;99.90;;;;;;5046531;28;19928;-71
2021/12/07 08:51:15;;;;;;;;;;;2.30;99.90;;;;;;5046250;28;19927;-71
2021/12/07 08:53:49;;;;;;;;;;;2.20;99.90;;;;;;5043059;28;19988;-72
2021/12/07 09:01:43;;;;;;;;;;;2.30;99.90;;;;;;5057561;28;19947;-72
2021/12/07 09:04:16;;;;;;;;;;;2.40;99.90;;;;;;5053707;28;19921;-71
2021/12/07 09:06:43;;;;;;;;;;;2.40;99.90;;;;;;5026527;28;19922;-71
2021/12/07 09:09:09;;;;;;;;;;;2.40;99.90;;;;;;5025748;28;19929;-71
2021/12/07 09:11:36;;;;;;;;;;;2.40;99.90;;;;;;5032801;28;19921;-71
2021/12/07 09:14:03;;;;;;;;;;;2.50;99.90;;;;;;5040193;28;19921;-72
2021/12/07 09:16:29;;;;;;;;;;;2.50;99.90;;;;;;5045852;28;19921;-71
2021/12/07 09:18:56;;;;;;;;;;;2.50;99.90;;;;;;5045749;28;19943;-71
2021/12/07 09:21:24;;;;;;;;;;;2.50;99.90;;;;;;5046031;28;19921;-71
2021/12/07 09:23:51;;;;;;;;;;;2.60;99.90;;;;;;5045017;28;19980;-73
2021/12/07 09:26:17;;;;;;;;;;;2.60;99.90;;;;;;5045291;28;19928;-71
2021/12/07 09:28:45;;;;;;;;;;;2.60;99.90;;;;;;5028937;28;19921;-72
2021/12/07 09:31:12;;;;;;;;;;;2.60;99.90;;;;;;5025896;28;19922;-72
2021/12/07 09:33:41;;;;;;;;;;;2.60;99.90;;;;;;5025031;28;20141;-72
2021/12/07 09:36:08;;;;;;;;;;;2.60;99.90;;;;;;5025280;28;19960;-72
2021/12/07 09:38:37;;;;;;;;;;;2.60;99.90;;;;;;5025050;28;20116;-72
2021/12/07 09:41:05;;;;;;;;;;;2.60;99.90;;;;;;5025550;28;20209;-72
2021/12/07 09:43:31;;;;;;;;;;;2.70;99.90;;;;;;5024957;28;19926;-72
2021/12/07 09:45:58;;;;;;;;;;;2.70;99.90;;;;;;5024958;28;19921;-72
2021/12/07 09:48:25;;;;;;;;;;;2.70;99.90;;;;;;5028653;28;19925;-71
2021/12/07 09:50:53;;;;;;;;;;;2.80;99.90;;;;;;5024770;28;20275;-71
2021/12/07 09:53:21;;;;;;;;;;;2.90;99.90;;;;;;5028572;28;19921;-70
2021/12/07 09:55:49;;;;;;;;;;;2.90;99.90;;;;;;5045075;28;19921;-71
2021/12/07 09:58:16;;;;;;;;;;;2.80;99.90;;;;;;5044913;28;20350;-71
2021/12/07 10:00:44;;;;;;;;;;;2.90;99.90;;;;;;5045341;28;19928;-71
2021/12/07 10:03:11;;;;;;;;;;;2.90;99.90;;;;;;5044592;28;19921;-72
2021/12/07 10:05:40;;;;;;;;;;;2.90;99.90;;;;;;5038039;28;19921;-71
2021/12/07 10:08:07;;;;;;;;;;;2.80;99.90;;;;;;5025155;28;19964;-71
2021/12/07 10:10:37;;;;;;;;;;;2.90;99.90;;;;;;5025167;28;19925;-71
2021/12/07 10:13:06;;;;;;;;;;;2.80;99.90;;;;;;5026974;28;20241;-72
2021/12/07 10:15:33;;;;;;;;;;;2.80;99.90;;;;;;5026143;28;20184;-71
2021/12/07 10:18:04;;;;;;;;;;;2.80;99.90;;;;;;5025268;28;19921;-71
2021/12/07 10:20:37;;;;;;;;;;;2.80;99.90;;;;;;5025305;28;19922;-71
2021/12/07 10:23:05;;;;;;;;;;;2.80;99.90;;;;;;5024622;28;19988;-72
2021/12/07 10:25:32;;;;;;;;;;;2.80;99.90;;;;;;5030585;28;19921;-71
2021/12/07 10:27:59;;;;;;;;;;;2.80;99.90;;;;;;5044578;28;19927;-71
2021/12/07 10:30:28;;;;;;;;;;;2.80;99.90;;;;;;5050805;28;19921;-71
2021/12/07 10:33:01;;;;;;;;;;;2.80;99.90;;;;;;5059990;28;20115;-71
2021/12/07 10:35:30;;;;;;;;;;;2.80;99.90;;;;;;5042545;28;19921;-71
2021/12/07 10:38:06;;;;;;;;;;;2.90;99.90;;;;;;5044363;28;19956;-71
2021/12/07 10:40:33;;;;;;;;;;;2.90;99.90;;;;;;5044459;28;19921;-71
2021/12/07 10:43:00;;;;;;;;;;;2.90;99.90;;;;;;5043568;28;19927;-72
2021/12/07 10:45:29;;;;;;;;;;;3.00;99.90;;;;;;5042732;28;19928;-72
2021/12/07 10:47:55;;;;;;;;;;;3.00;99.90;;;;;;5036604;28;20364;-69
2021/12/07 10:50:23;;;;;;;;;;;3.00;99.90;;;;;;5039331;28;19928;-69
2021/12/07 10:52:50;;;;;;;;;;;3.00;99.90;;;;;;5061503;23;19921;-69
2021/12/07 10:55:17;;;;;;;;;;;3.00;99.90;;;;;;5067193;28;19927;-69
2021/12/07 10:57:45;;;;;;;;;;;3.00;99.90;;;;;;5081159;28;19955;-67
2021/12/07 11:00:22;;;;;;;;;;;3.00;99.90;;;;;;5082446;28;19920;-69
2021/12/07 11:02:52;;;;;;;;;;;2.90;99.90;;;;;;5082010;28;19926;-69
2021/12/07 11:05:21;;;;;;;;;;;3.00;99.90;;;;;;5067921;28;20111;-68
2021/12/07 11:07:48;;;;;;;;;;;2.90;99.90;;;;;;5063962;28;19920;-69
2021/12/07 11:10:17;;;;;;;;;;;2.90;99.90;;;;;;5063124;28;19928;-68
2021/12/07 11:12:49;;;;;;;;;;;3.00;99.90;;;;;;5062821;28;19956;-69
2021/12/07 11:15:22;;;;;;;;;;;2.90;99.90;;;;;;5047393;28;19980;-69
2021/12/07 11:17:51;;;;;;;;;;;2.90;99.90;;;;;;5063287;28;20280;-69
2021/12/07 11:20:17;;;;;;;;;;;2.80;99.90;;;;;;5066057;28;19920;-69
2021/12/07 11:22:48;;;;;;;;;;;2.90;99.90;;;;;;5055815;28;19928;-69
2021/12/07 11:25:31;;;;;;;;;;;2.90;99.90;;;;;;5046750;28;19921;-68
2021/12/07 11:30:43;;;;;;;;;;;2.90;99.90;;;;;;5066631;28;19962;-68
2021/12/07 11:33:10;;;;;;;;;;;2.90;99.90;;;;;;5074754;28;19988;-69
2021/12/07 11:35:37;;;;;;;;;;;2.90;99.90;;;;;;5075413;28;19920;-68
2021/12/07 11:38:06;;;;;;;;;;;2.90;99.90;;;;;;5082023;28;19924;-68
2021/12/07 11:40:34;;;;;;;;;;;2.90;99.90;;;;;;5082715;28;19921;-68
2021/12/07 11:43:00;;;;;;;;;;;2.90;99.90;;;;;;5082679;28;19920;-69
2021/12/07 11:45:28;;;;;;;;;;;2.90;99.90;;;;;;5077043;28;19921;-68
2021/12/07 11:47:56;;;;;;;;;;;3.00;99.90;;;;;;5063247;28;19920;-69
2021/12/07 11:50:27;;;;;;;;;;;3.00;99.90;;;;;;5063067;28;19943;-69
2021/12/07 11:52:56;;;;;;;;;;;3.00;99.90;;;;;;5062669;28;19921;-69
2021/12/07 11:55:23;;;;;;;;;;;3.00;99.90;;;;;;5062723;28;19925;-69
2021/12/07 11:57:50;;;;;;;;;;;3.10;99.90;;;;;;5074919;28;19921;-68
2021/12/07 12:00:19;;;;;;;;;;;3.10;99.90;;;;;;5077839;28;19921;-69
2021/12/07 12:02:46;;;;;;;;;;;3.10;99.90;;;;;;5062772;28;19926;-69
2021/12/07 12:05:13;;;;;;;;;;;3.10;99.90;;;;;;5061943;28;19927;-73
2021/12/07 12:07:44;;;;;;;;;;;3.20;99.90;;;;;;5073770;28;19920;-72
2021/12/07 12:10:12;;;;;;;;;;;3.10;99.90;;;;;;5063015;28;20246;-72
2021/12/07 12:12:46;;;;;;;;;;;3.10;99.90;;;;;;5082749;28;19960;-72
2021/12/07 12:15:24;;;;;;;;;;;3.20;99.90;;;;;;5070994;28;19924;-72
2021/12/07 12:17:55;;;;;;;;;;;3.20;99.90;;;;;;5066436;28;19943;-72
2021/12/07 12:20:35;;;;;;;;;;;3.20;99.90;;;;;;5075403;28;19927;-72
2021/12/07 12:23:10;;;;;;;;;;;3.30;99.90;;;;;;5086098;28;19921;-72
2021/12/07 12:25:37;;;;;;;;;;;3.30;99.90;;;;;;5083193;28;19920;-72
2021/12/07 12:28:03;;;;;;;;;;;3.40;99.90;;;;;;5066701;28;19927;-72
2021/12/07 12:30:32;;;;;;;;;;;3.40;99.90;;;;;;5072053;28;19920;-72
2021/12/07 12:32:59;;;;;;;;;;;3.40;99.90;;;;;;5086381;28;19927;-71
2021/12/07 12:35:28;;;;;;;;;;;3.40;99.90;;;;;;5079509;28;19921;-72
2021/12/07 12:37:54;;;;;;;;;;;3.40;99.90;;;;;;5066526;28;19929;-70
2021/12/07 12:40:25;;;;;;;;;;;3.50;99.90;;;;;;5067012;28;19935;-72
2021/12/07 12:42:52;;;;;;;;;;;3.50;99.90;;;;;;5073342;28;19983;-72
2021/12/07 12:45:22;;;;;;;;;;;3.50;99.90;;;;;;5079711;28;19926;-72
2021/12/07 12:47:54;;;;;;;;;;;3.50;99.90;;;;;;5073194;28;19928;-71
2021/12/07 12:50:22;;;;;;;;;;;3.60;99.90;;;;;;5071830;28;19925;-73
2021/12/07 12:52:49;;;;;;;;;;;3.60;99.90;;;;;;5072927;28;19924;-72
2021/12/07 12:55:46;;;;;;;;;;;3.60;99.90;;;;;;5065679;28;19928;-72
2021/12/07 12:58:17;;;;;;;;;;;3.70;99.90;;;;;;5066018;28;19928;-72
2021/12/07 13:01:02;;;;;;;;;;;3.70;99.90;;;;;;5065892;28;19929;-71
2021/12/07 13:03:38;;;;;;;;;;;3.70;99.90;;;;;;5065280;28;19996;-72
2021/12/07 13:06:05;;;;;;;;;;;3.70;99.90;;;;;;5065312;28;19952;-72
2021/12/07 13:08:31;;;;;;;;;;;3.90;99.90;;;;;;5084295;28;19929;-70
2021/12/07 13:10:59;;;;;;;;;;;4.10;99.90;;;;;;5085901;28;19920;-71
2021/12/07 13:13:30;;;;;;;;;;;4.30;99.90;;;;;;5075992;28;19921;-71
2021/12/07 13:15:57;;;;;;;;;;;4.40;99.90;;;;;;5064398;28;19921;-72
2021/12/07 13:18:27;;;;;;;;;;;4.30;99.90;;;;;;5065589;28;19931;-73
2021/12/07 13:20:54;;;;;;;;;;;4.30;99.90;;;;;;5065502;28;19963;-73
2021/12/07 13:23:28;;;;;;;;;;;4.20;99.90;;;;;;5065404;28;19921;-73
2021/12/07 13:25:55;;;;;;;;;;;4.20;99.90;;;;;;5053500;28;19921;-73
2021/12/07 13:28:25;;;;;;;;;;;4.10;99.90;;;;;;5045326;28;19928;-73
2021/12/07 13:30:54;;;;;;;;;;;4.10;99.90;;;;;;5045299;28;19964;-73
2021/12/07 13:33:22;;;;;;;;;;;4.10;99.90;;;;;;5045298;28;19921;-73
2021/12/07 13:35:49;;;;;;;;;;;4.10;99.90;;;;;;5048538;28;20238;-73
2021/12/07 13:38:17;;;;;;;;;;;4.10;99.90;;;;;;5045477;28;19921;-73
2021/12/07 13:40:44;;;;;;;;;;;4.10;99.90;;;;;;5045072;28;19921;-73
2021/12/07 13:43:10;;;;;;;;;;;4.00;99.90;;;;;;5044910;28;19927;-72
2021/12/07 13:45:37;;;;;;;;;;;4.00;99.90;;;;;;5046446;28;19925;-72
2021/12/07 13:48:05;;;;;;;;;;;3.90;99.90;;;;;;5065414;28;20108;-73
2021/12/07 13:50:33;;;;;;;;;;;3.90;99.90;;;;;;5064972;28;19921;-73
2021/12/07 13:52:59;;;;;;;;;;;3.90;99.90;;;;;;5065121;28;19921;-73
2021/12/07 13:55:28;;;;;;;;;;;3.80;99.90;;;;;;5059888;28;19921;-73
2021/12/07 13:57:56;;;;;;;;;;;3.80;99.90;;;;;;5070124;28;20170;-73
2021/12/07 14:00:24;;;;;;;;;;;3.90;99.90;;;;;;5071498;28;19928;-73
2021/12/07 14:02:54;;;;;;;;;;;3.90;99.90;;;;;;5064762;28;20196;-73
2021/12/07 14:05:23;;;;;;;;;;;3.90;99.90;;;;;;5071274;28;20003;-75
2021/12/07 14:07:50;;;;;;;;;;;4.00;99.90;;;;;;5044051;28;20123;-70
2021/12/07 14:10:21;;;;;;;;;;;4.00;99.90;;;;;;5054212;28;20278;-70
2021/12/07 14:12:49;;;;;;;;;;;4.00;99.90;;;;;;5066018;28;19920;-70
2021/12/07 14:15:18;;;;;;;;;;;4.00;99.90;;;;;;5061962;28;19924;-70
2021/12/07 14:17:46;;;;;;;;;;;4.00;99.90;;;;;;5064285;28;19937;-70
2021/12/07 14:20:12;;;;;;;;;;;4.00;99.90;;;;;;5077732;28;19920;-70
2021/12/07 14:22:45;;;;;;;;;;;4.00;99.90;;;;;;5064254;28;19929;-70
2021/12/07 14:25:16;;;;;;;;;;;4.00;99.90;;;;;;5063973;28;19920;-70
2021/12/07 14:27:44;;;;;;;;;;;4.00;99.90;;;;;;5051129;28;19939;-70
2021/12/07 14:30:12;;;;;;;;;;;3.90;99.90;;;;;;5068453;28;19920;-70
2021/12/07 14:32:39;;;;;;;;;;;3.90;99.90;;;;;;5083020;28;20208;-70
2021/12/07 14:35:06;;;;;;;;;;;3.80;99.90;;;;;;5063470;28;19946;-69
2021/12/07 14:37:33;;;;;;;;;;;3.80;99.90;;;;;;5064099;28;19920;-70
2021/12/07 14:40:01;;;;;;;;;;;3.80;99.90;;;;;;5082530;28;19925;-70
2021/12/07 14:42:29;;;;;;;;;;;3.80;99.90;;;;;;5083976;28;19921;-69
2021/12/07 14:44:56;;;;;;;;;;;3.70;99.90;;;;;;5061896;28;19929;-70
2021/12/07 14:47:23;;;;;;;;;;;3.70;99.90;;;;;;5065539;28;19928;-70
2021/12/07 14:49:51;;;;;;;;;;;3.70;99.90;;;;;;5064752;28;19927;-70
2021/12/07 14:52:19;;;;;;;;;;;3.60;99.90;;;;;;5070690;28;19921;-70
2021/12/07 14:54:46;;;;;;;;;;;3.60;99.90;;;;;;5062433;28;19946;-70
2021/12/07 14:57:14;;;;;;;;;;;3.60;99.90;;;;;;5060820;28;20123;-68
2021/12/07 14:59:42;;;;;;;;;;;3.60;99.90;;;;;;5063614;28;19984;-69
2021/12/07 15:02:09;;;;;;;;;;;3.50;99.90;;;;;;5063508;28;19995;-67
2021/12/07 15:04:36;;;;;;;;;;;3.40;99.90;;;;;;5055394;28;19921;-72
2021/12/07 15:07:04;;;;;;;;;;;3.40;99.90;;;;;;5076321;28;19927;-70
2021/12/07 15:09:33;;;;;;;;;;;3.30;99.90;;;;;;5073979;28;19920;-72
2021/12/07 15:12:00;;;;;;;;;;;3.30;99.90;;;;;;5043226;28;19928;-72
2021/12/07 15:14:31;;;;;;;;;;;3.40;99.90;;;;;;5042939;28;19928;-72
2021/12/07 15:16:59;;;;;;;;;;;3.30;99.90;;;;;;5062721;28;19929;-72
2021/12/07 15:19:26;;;;;;;;;;;3.30;99.90;;;;;;5062689;28;19921;-69
2021/12/07 15:21:53;;;;;;;;;;;3.30;99.90;;;;;;5065891;28;19921;-69
2021/12/07 15:24:21;;;;;;;;;;;3.20;99.90;;;;;;5042651;28;20175;-69
2021/12/07 15:26:49;;;;;;;;;;;3.30;99.90;;;;;;5057016;28;19921;-69
2021/12/07 15:29:17;;;;;;;;;;;3.20;99.90;;;;;;5068183;28;20208;-70
2021/12/07 15:31:47;;;;;;;;;;;3.30;99.90;;;;;;5064187;28;19991;-69
2021/12/07 15:34:15;;;;;;;;;;;3.30;99.90;;;;;;5063491;28;19928;-70
2021/12/07 15:36:44;;;;;;;;;;;3.30;99.90;;;;;;5069762;28;19928;-70
2021/12/07 15:39:12;;;;;;;;;;;3.30;99.90;;;;;;5062888;28;19963;-70
2021/12/07 15:41:40;;;;;;;;;;;3.30;99.90;;;;;;5067968;28;19948;-70
2021/12/07 15:44:07;;;;;;;;;;;3.30;99.90;;;;;;5059381;28;19925;-70
2021/12/07 15:46:34;;;;;;;;;;;3.20;99.90;;;;;;5079186;28;19921;-70
2021/12/07 15:49:02;;;;;;;;;;;3.20;99.90;;;;;;5084516;28;20236;-69
2021/12/07 15:51:28;;;;;;;;;;;3.10;99.90;;;;;;5086378;28;19926;-68
2021/12/07 15:53:55;;;;;;;;;;;3.10;99.90;;;;;;5066431;28;19920;-69
2021/12/07 15:56:22;;;;;;;;;;;3.10;99.90;;;;;;5065288;28;19927;-70